Time;durP1;ratioP1;P1;durP2;ratioP2;P2;SDS_P1;SDS_P2;PMS_P1;PMS_P2;Temp;Humidity;BMP_temperature;BMP_pressure;BME280_temperature;BME280_humidity;BME280_pressure;Samples;Min_cycle;Max_cycle;Signal;HPM_P1;HPM_P2
2024/01/31 00:01:33;;;;;;;132.05;124.07;;;4.00;99.90;;;;;;4938356;28;20050;-75
2024/01/31 00:03:59;;;;;;;104.10;98.07;;;4.00;99.90;;;;;;4953855;29;20465;-75
2024/01/31 00:06:24;;;;;;;163.20;152.07;;;4.00;99.90;;;;;;4954228;29;20054;-75
2024/01/31 00:08:50;;;;;;;104.13;98.80;;;4.10;99.90;;;;;;4937367;29;20283;-75
2024/01/31 00:11:16;;;;;;;161.23;151.87;;;4.10;99.90;;;;;;4945681;28;20126;-75
2024/01/31 00:13:41;;;;;;;104.77;99.00;;;4.10;99.90;;;;;;4935529;29;20486;-75
2024/01/31 00:16:07;;;;;;;89.00;83.90;;;4.20;99.90;;;;;;4933470;29;20118;-75
2024/01/31 00:18:33;;;;;;;182.93;172.57;;;4.20;99.90;;;;;;4952162;28;20050;-75
2024/01/31 00:20:59;;;;;;;138.32;130.65;;;4.20;99.90;;;;;;4948178;28;20039;-75
2024/01/31 00:23:25;;;;;;;278.53;258.07;;;4.20;99.90;;;;;;4934754;29;20061;-75
2024/01/31 00:25:51;;;;;;;185.63;174.70;;;4.20;99.90;;;;;;4933972;29;20086;-75
2024/01/31 00:28:17;;;;;;;116.45;109.53;;;4.20;99.90;;;;;;4933175;29;20044;-75
2024/01/31 00:30:42;;;;;;;242.43;227.87;;;4.30;99.90;;;;;;4945225;29;20125;-75
2024/01/31 00:33:08;;;;;;;78.67;74.60;;;4.30;99.90;;;;;;4943784;29;20050;-75
2024/01/31 00:35:34;;;;;;;130.70;123.53;;;4.30;99.90;;;;;;4940829;28;20074;-75
2024/01/31 00:38:00;;;;;;;92.10;86.77;;;4.30;99.90;;;;;;4946453;29;20043;-75
2024/01/31 00:40:26;;;;;;;97.80;92.57;;;4.30;99.90;;;;;;4952999;28;20043;-75
2024/01/31 00:42:51;;;;;;;113.87;107.20;;;4.30;99.90;;;;;;4944992;28;20074;-75
2024/01/31 00:45:17;;;;;;;153.67;144.97;;;4.30;99.90;;;;;;4949786;28;20039;-75
2024/01/31 00:47:43;;;;;;;122.17;115.37;;;4.30;99.90;;;;;;4952457;28;20046;-75
2024/01/31 00:50:11;;;;;;;116.07;109.97;;;4.30;99.90;;;;;;4940216;28;20557;-75
2024/01/31 00:52:37;;;;;;;108.40;102.57;;;4.30;99.90;;;;;;4923650;28;20047;-75
2024/01/31 00:55:03;;;;;;;190.57;179.83;;;4.30;99.90;;;;;;4941519;29;20043;-75
2024/01/31 00:57:29;;;;;;;89.40;84.50;;;4.30;99.90;;;;;;4947337;28;20055;-75
2024/01/31 00:59:55;;;;;;;85.20;80.43;;;4.30;99.90;;;;;;4927192;28;20117;-75
2024/01/31 01:02:20;;;;;;;96.97;91.75;;;4.20;99.90;;;;;;4949054;28;20043;-75
2024/01/31 01:04:46;;;;;;;119.50;112.53;;;4.10;99.90;;;;;;4949040;29;20054;-75
2024/01/31 01:07:12;;;;;;;209.00;196.47;;;4.00;99.90;;;;;;4952499;28;20488;-75
2024/01/31 01:09:38;;;;;;;139.40;131.32;;;3.90;99.90;;;;;;4951096;28;20094;-75
2024/01/31 01:12:04;;;;;;;121.77;114.50;;;3.90;99.90;;;;;;4950681;28;20485;-75
2024/01/31 01:14:30;;;;;;;86.77;81.93;;;3.90;99.90;;;;;;4928313;29;20071;-75
2024/01/31 01:16:55;;;;;;;74.90;70.87;;;3.90;99.90;;;;;;4934045;29;21820;-75
2024/01/31 01:19:21;;;;;;;92.53;87.30;;;3.90;99.90;;;;;;4942928;28;20342;-75
2024/01/31 01:21:47;;;;;;;75.23;71.10;;;3.90;99.90;;;;;;4948352;29;20063;-75
2024/01/31 01:24:13;;;;;;;104.88;98.78;;;3.80;99.90;;;;;;4926663;29;20420;-75
2024/01/31 01:26:40;;;;;;;77.30;73.13;;;3.80;99.90;;;;;;4935594;29;20127;-75
2024/01/31 01:29:06;;;;;;;82.68;77.97;;;3.70;99.90;;;;;;4959811;28;20043;-75
2024/01/31 01:31:32;;;;;;;77.60;73.40;;;3.60;99.90;;;;;;4929602;29;20070;-75
2024/01/31 01:33:59;;;;;;;78.53;73.80;;;3.60;99.90;;;;;;4946029;28;20039;-75
2024/01/31 01:36:28;;;;;;;96.75;91.25;;;3.50;99.90;;;;;;4947518;29;20082;-75
2024/01/31 01:38:53;;;;;;;103.60;98.03;;;3.50;99.90;;;;;;4935834;29;20050;-75
2024/01/31 01:41:19;;;;;;;83.60;79.23;;;3.50;99.90;;;;;;4951625;28;20584;-75
2024/01/31 01:43:47;;;;;;;76.20;72.32;;;3.50;99.90;;;;;;4941956;29;20051;-75
2024/01/31 01:46:21;;;;;;;78.55;73.97;;;3.50;99.90;;;;;;4941827;29;20059;-75
2024/01/31 01:48:50;;;;;;;95.45;89.88;;;3.50;99.90;;;;;;4952465;28;20058;-75
2024/01/31 01:51:18;;;;;;;106.93;100.93;;;3.50;99.90;;;;;;4940101;28;20134;-75
2024/01/31 01:53:45;;;;;;;99.72;94.10;;;3.60;99.90;;;;;;4927717;29;20086;-75
2024/01/31 01:56:13;;;;;;;166.95;157.30;;;3.60;99.90;;;;;;4943406;29;20046;-75
2024/01/31 01:58:40;;;;;;;83.20;78.28;;;3.60;99.90;;;;;;4931296;29;20066;-75
2024/01/31 02:01:11;;;;;;;79.55;74.68;;;3.60;99.90;;;;;;4930708;29;20051;-75
2024/01/31 02:03:37;;;;;;;70.93;66.68;;;3.70;99.90;;;;;;4948665;28;20039;-75
2024/01/31 02:06:03;;;;;;;81.33;77.17;;;3.70;99.90;;;;;;4930904;29;20069;-75
2024/01/31 02:08:29;;;;;;;96.50;90.93;;;3.70;99.90;;;;;;4946264;28;20049;-75
2024/01/31 02:10:56;;;;;;;78.43;74.28;;;3.70;99.90;;;;;;4929504;29;20047;-76
2024/01/31 02:13:22;;;;;;;97.30;91.38;;;3.70;99.90;;;;;;4962422;28;20050;-75
2024/01/31 02:15:56;;;;;;;110.88;104.25;;;3.70;99.90;;;;;;4927220;29;20586;-75
2024/01/31 02:18:25;;;;;;;130.75;123.72;;;3.70;99.90;;;;;;4948281;29;20039;-75
2024/01/31 02:20:51;;;;;;;79.80;75.68;;;3.70;99.90;;;;;;4934518;29;20509;-75
2024/01/31 02:23:17;;;;;;;77.80;73.93;;;3.70;99.90;;;;;;4941026;28;20043;-75
2024/01/31 02:25:44;;;;;;;96.43;91.40;;;3.70;99.90;;;;;;4947706;28;20572;-75
2024/01/31 02:28:10;;;;;;;77.47;73.43;;;3.70;99.90;;;;;;4950227;29;20422;-75
2024/01/31 02:30:35;;;;;;;70.60;66.93;;;3.70;99.90;;;;;;4946076;28;20046;-75
2024/01/31 02:33:01;;;;;;;67.87;64.37;;;3.70;99.90;;;;;;4932653;29;20496;-75
2024/01/31 02:35:28;;;;;;;111.27;105.17;;;3.60;99.90;;;;;;4941976;28;20039;-75
2024/01/31 02:37:54;;;;;;;77.60;73.72;;;3.50;99.90;;;;;;4947455;29;20043;-75
2024/01/31 02:40:19;;;;;;;80.10;76.03;;;3.50;99.90;;;;;;4948501;29;20039;-75
2024/01/31 02:42:45;;;;;;;88.53;84.03;;;3.50;99.90;;;;;;4931898;29;20110;-75
2024/01/31 02:45:11;;;;;;;68.17;64.83;;;3.50;99.90;;;;;;4941448;28;20070;-73
2024/01/31 02:47:38;;;;;;;82.57;78.27;;;3.40;99.90;;;;;;4924250;28;20051;-73
2024/01/31 02:50:05;;;;;;;85.82;81.55;;;3.40;99.90;;;;;;4939988;28;20051;-73
2024/01/31 02:52:30;;;;;;;122.55;115.82;;;3.40;99.90;;;;;;4927148;28;20044;-73
2024/01/31 02:54:58;;;;;;;57.47;54.60;;;3.40;99.90;;;;;;4946416;29;20043;-73
2024/01/31 02:57:24;;;;;;;63.38;60.25;;;3.30;99.90;;;;;;4942634;29;20433;-73
2024/01/31 02:59:50;;;;;;;62.45;59.35;;;3.30;99.90;;;;;;4928373;29;20042;-73
2024/01/31 03:02:17;;;;;;;112.75;106.78;;;3.30;99.90;;;;;;4931551;28;20079;-73
2024/01/31 03:04:45;;;;;;;72.72;69.13;;;3.30;99.90;;;;;;4925701;29;20040;-73
2024/01/31 03:07:11;;;;;;;69.13;65.53;;;3.30;99.90;;;;;;4951020;28;20352;-73
2024/01/31 03:09:37;;;;;;;76.63;72.77;;;3.30;99.90;;;;;;4934171;28;20065;-73
2024/01/31 03:12:07;;;;;;;65.95;62.55;;;3.30;99.90;;;;;;4923860;29;20051;-73
2024/01/31 03:14:33;;;;;;;68.30;64.82;;;3.40;99.90;;;;;;4950809;28;20045;-73
2024/01/31 03:16:59;;;;;;;90.40;85.60;;;3.40;99.90;;;;;;4931586;29;20083;-73
2024/01/31 03:19:28;;;;;;;67.13;63.73;;;3.40;99.90;;;;;;4940162;29;20043;-73
2024/01/31 03:21:53;;;;;;;70.75;67.30;;;3.40;99.90;;;;;;4936987;29;20039;-73
2024/01/31 03:24:20;;;;;;;98.30;93.20;;;3.40;99.90;;;;;;4929161;29;20131;-72
2024/01/31 03:26:45;;;;;;;143.25;135.18;;;3.40;99.90;;;;;;4943533;29;20564;-73
2024/01/31 03:29:11;;;;;;;97.80;92.67;;;3.40;99.90;;;;;;4941017;29;20032;-73
2024/01/31 03:31:37;;;;;;;85.60;80.93;;;3.50;99.90;;;;;;4931897;29;20126;-73
2024/01/31 03:34:04;;;;;;;92.72;88.22;;;3.50;99.90;;;;;;4952173;28;20047;-73
2024/01/31 03:36:30;;;;;;;129.70;122.65;;;3.60;99.90;;;;;;4933341;28;20032;-73
2024/01/31 03:38:59;;;;;;;146.55;138.23;;;3.60;99.90;;;;;;4920493;29;20035;-73
2024/01/31 03:41:28;;;;;;;120.65;114.18;;;3.60;99.90;;;;;;4940089;28;20126;-74
2024/01/31 03:43:54;;;;;;;95.75;90.93;;;3.70;99.90;;;;;;4944638;29;20095;-74
2024/01/31 03:46:20;;;;;;;78.97;74.97;;;3.70;99.90;;;;;;4936520;28;20050;-74
2024/01/31 03:48:47;;;;;;;74.63;70.68;;;3.70;99.90;;;;;;4945575;28;20437;-73
2024/01/31 03:51:22;;;;;;;77.07;73.30;;;3.70;99.90;;;;;;4949762;28;20517;-74
2024/01/31 03:53:48;;;;;;;103.40;98.15;;;3.70;99.90;;;;;;4950963;29;20047;-74
2024/01/31 03:56:14;;;;;;;67.35;63.88;;;3.70;99.90;;;;;;4936336;29;20045;-73
2024/01/31 03:58:40;;;;;;;105.63;99.95;;;3.70;99.90;;;;;;4948177;28;20137;-74
2024/01/31 04:01:07;;;;;;;76.45;72.60;;;3.70;99.90;;;;;;4948950;28;20044;-74
2024/01/31 04:03:33;;;;;;;87.68;83.35;;;3.70;99.90;;;;;;4954551;28;20158;-74
2024/01/31 04:05:59;;;;;;;92.53;87.70;;;3.70;99.90;;;;;;4951122;28;20035;-73
2024/01/31 04:08:24;;;;;;;88.07;83.70;;;3.70;99.90;;;;;;4944071;28;20045;-73
2024/01/31 04:10:52;;;;;;;86.13;81.43;;;3.70;99.90;;;;;;4948551;28;20208;-73
2024/01/31 04:13:21;;;;;;;93.57;88.32;;;3.80;99.90;;;;;;4926889;29;20058;-73
2024/01/31 04:15:47;;;;;;;125.95;119.07;;;3.80;99.90;;;;;;4965888;28;20038;-73
2024/01/31 04:18:12;;;;;;;113.40;107.13;;;3.80;99.90;;;;;;4935166;29;20047;-73
2024/01/31 04:20:38;;;;;;;86.73;82.10;;;3.80;99.90;;;;;;4942979;28;20040;-75
2024/01/31 04:23:07;;;;;;;146.23;137.93;;;3.80;99.90;;;;;;4948418;28;20079;-74
2024/01/31 04:25:34;;;;;;;97.72;92.75;;;3.80;99.90;;;;;;4958500;28;20387;-73
2024/01/31 04:28:00;;;;;;;116.65;110.10;;;3.80;99.90;;;;;;4952157;28;20039;-73
2024/01/31 04:30:26;;;;;;;131.50;123.80;;;3.90;99.90;;;;;;4965016;28;20054;-73
2024/01/31 04:32:52;;;;;;;123.78;116.95;;;3.90;99.90;;;;;;4954202;28;20039;-73
2024/01/31 04:35:17;;;;;;;105.63;99.73;;;3.90;99.90;;;;;;4936564;29;20055;-74
2024/01/31 04:37:43;;;;;;;88.83;83.97;;;3.90;99.90;;;;;;4940052;28;20039;-73
2024/01/31 04:40:09;;;;;;;135.90;127.67;;;3.90;99.90;;;;;;4945530;29;20101;-73
2024/01/31 04:42:36;;;;;;;98.70;93.22;;;3.90;99.90;;;;;;4948576;28;20039;-74
2024/01/31 04:45:02;;;;;;;138.30;130.45;;;3.90;99.90;;;;;;4943234;28;20046;-74
2024/01/31 04:47:28;;;;;;;90.22;85.00;;;3.90;99.90;;;;;;4949901;28;20086;-73
2024/01/31 04:49:55;;;;;;;124.83;117.40;;;3.80;99.90;;;;;;4942036;28;20078;-73
2024/01/31 04:52:21;;;;;;;88.13;82.93;;;3.80;99.90;;;;;;4955917;28;20046;-73
2024/01/31 04:54:46;;;;;;;91.73;86.53;;;3.80;99.90;;;;;;4942493;28;20098;-74
2024/01/31 04:57:12;;;;;;;112.87;106.67;;;3.80;99.90;;;;;;4942757;28;20581;-74
2024/01/31 04:59:38;;;;;;;114.83;108.17;;;3.70;99.90;;;;;;4946324;28;20129;-73
2024/01/31 05:02:06;;;;;;;105.07;99.15;;;3.80;99.90;;;;;;4958628;28;20113;-74
2024/01/31 05:04:32;;;;;;;120.90;114.18;;;3.80;99.90;;;;;;4929759;29;20514;-73
2024/01/31 05:06:57;;;;;;;121.57;114.33;;;3.70;99.90;;;;;;4933183;29;20066;-73
2024/01/31 05:09:23;;;;;;;139.87;132.23;;;3.70;99.90;;;;;;4933140;29;20082;-73
2024/01/31 05:11:49;;;;;;;141.67;133.47;;;3.70;99.90;;;;;;4948248;28;20043;-73
2024/01/31 05:14:15;;;;;;;137.13;129.17;;;3.70;99.90;;;;;;4958808;28;20133;-73
2024/01/31 05:16:42;;;;;;;115.47;108.87;;;3.60;99.90;;;;;;4951984;28;20382;-73
2024/01/31 05:19:08;;;;;;;86.38;81.65;;;3.50;99.90;;;;;;4947945;29;20047;-73
2024/01/31 05:21:34;;;;;;;62.50;59.03;;;3.40;99.90;;;;;;4926476;29;20062;-74
2024/01/31 05:24:00;;;;;;;73.40;69.22;;;3.40;99.90;;;;;;4929894;28;20485;-74
2024/01/31 05:26:26;;;;;;;62.40;58.17;;;3.30;99.90;;;;;;4923739;29;20106;-74
2024/01/31 05:28:51;;;;;;;112.17;105.87;;;3.20;99.90;;;;;;4937676;28;20078;-74
2024/01/31 05:31:17;;;;;;;58.67;55.57;;;3.10;99.90;;;;;;4951031;28;20105;-74
2024/01/31 05:33:43;;;;;;;76.10;71.97;;;3.00;99.90;;;;;;4945150;28;20517;-74
2024/01/31 05:36:08;;;;;;;68.57;64.90;;;2.90;99.90;;;;;;4940668;28;20042;-74
2024/01/31 05:38:34;;;;;;;54.47;51.70;;;2.80;99.90;;;;;;4945865;28;20141;-74
2024/01/31 05:41:00;;;;;;;38.17;35.63;;;2.70;99.90;;;;;;4944407;28;20054;-74
2024/01/31 05:43:25;;;;;;;48.60;45.80;;;2.60;99.90;;;;;;4936809;29;20557;-74
2024/01/31 05:45:51;;;;;;;44.90;42.30;;;2.50;99.90;;;;;;4953137;28;20043;-74
2024/01/31 05:48:17;;;;;;;49.03;45.97;;;2.50;99.90;;;;;;4935700;29;20046;-74
2024/01/31 05:50:42;;;;;;;37.20;34.87;;;2.40;99.90;;;;;;4937840;29;20494;-74
2024/01/31 05:53:08;;;;;;;45.20;42.50;;;2.40;99.90;;;;;;4957740;28;20046;-73
2024/01/31 05:55:34;;;;;;;54.53;51.03;;;2.30;99.90;;;;;;4960184;28;20508;-74
2024/01/31 05:58:00;;;;;;;42.17;39.83;;;2.30;99.90;;;;;;4945362;28;20046;-74
2024/01/31 06:00:26;;;;;;;41.80;39.23;;;2.20;99.90;;;;;;4950165;28;20035;-74
2024/01/31 06:02:51;;;;;;;34.00;31.90;;;2.20;99.90;;;;;;4957606;28;20039;-74
2024/01/31 06:05:17;;;;;;;47.83;44.87;;;2.20;99.90;;;;;;4934365;28;20074;-74
2024/01/31 06:07:43;;;;;;;42.67;40.20;;;2.20;99.90;;;;;;4940884;29;20039;-74
2024/01/31 06:10:09;;;;;;;41.87;38.97;;;2.20;99.90;;;;;;4944363;28;20351;-74
2024/01/31 06:12:35;;;;;;;32.30;30.05;;;2.10;99.90;;;;;;4944555;28;20062;-74
2024/01/31 06:15:01;;;;;;;50.67;47.57;;;2.10;99.90;;;;;;4951958;28;20395;-74
2024/01/31 06:17:26;;;;;;;44.17;41.60;;;2.10;99.90;;;;;;4951742;28;20043;-74
2024/01/31 06:19:52;;;;;;;76.37;72.03;;;2.00;99.90;;;;;;4938189;28;20525;-74
2024/01/31 06:22:18;;;;;;;54.03;50.87;;;2.00;99.90;;;;;;4945205;28;20071;-73
2024/01/31 06:24:43;;;;;;;78.03;73.30;;;1.90;99.90;;;;;;4927869;29;20413;-74
2024/01/31 06:27:09;;;;;;;42.80;40.37;;;1.80;99.90;;;;;;4948371;28;20046;-73
2024/01/31 06:29:38;;;;;;;52.30;48.83;;;1.80;99.90;;;;;;4946345;29;20139;-74
2024/01/31 06:32:04;;;;;;;50.83;48.05;;;1.80;99.90;;;;;;4952067;28;20066;-74
2024/01/31 06:34:30;;;;;;;49.72;47.00;;;1.90;99.90;;;;;;4943905;29;20075;-73
2024/01/31 06:36:56;;;;;;;35.30;33.40;;;1.90;99.90;;;;;;4944819;28;20452;-73
2024/01/31 06:39:22;;;;;;;73.13;69.03;;;2.00;99.90;;;;;;4940252;29;20044;-74
2024/01/31 06:41:47;;;;;;;49.57;46.37;;;2.10;99.90;;;;;;4951503;28;20079;-74
2024/01/31 06:44:13;;;;;;;69.07;65.20;;;2.10;99.90;;;;;;4934406;28;20125;-74
2024/01/31 06:46:39;;;;;;;40.70;38.20;;;2.20;99.90;;;;;;4952027;29;20039;-74
2024/01/31 06:49:05;;;;;;;58.43;55.23;;;2.30;99.90;;;;;;4932121;29;20524;-73
2024/01/31 06:51:31;;;;;;;85.60;80.33;;;2.30;99.90;;;;;;4935860;29;20047;-73
2024/01/31 06:53:58;;;;;;;76.28;71.90;;;2.40;99.90;;;;;;4947062;29;20035;-74
2024/01/31 06:56:24;;;;;;;72.20;68.32;;;2.40;99.90;;;;;;4931956;29;20417;-73
2024/01/31 06:58:51;;;;;;;97.83;92.17;;;2.50;99.90;;;;;;4927240;29;20043;-74
2024/01/31 07:01:18;;;;;;;108.78;102.70;;;2.60;99.90;;;;;;4941885;28;20177;-74
2024/01/31 07:03:46;;;;;;;82.47;77.90;;;2.70;99.90;;;;;;4933629;28;20149;-73
2024/01/31 07:06:13;;;;;;;82.80;77.90;;;2.70;99.90;;;;;;4929559;28;20520;-74
2024/01/31 07:08:39;;;;;;;95.55;89.90;;;2.70;99.90;;;;;;4930098;29;20078;-73
2024/01/31 07:11:08;;;;;;;74.40;70.30;;;2.80;99.90;;;;;;4933085;29;20051;-73
2024/01/31 07:13:39;;;;;;;44.50;41.92;;;2.80;99.90;;;;;;4944587;28;20064;-73
2024/01/31 07:16:09;;;;;;;75.85;71.88;;;2.80;99.90;;;;;;4968802;28;20035;-73
2024/01/31 07:18:36;;;;;;;70.55;66.55;;;2.80;99.90;;;;;;4951156;29;20087;-74
2024/01/31 07:21:02;;;;;;;38.78;36.55;;;2.90;99.90;;;;;;4952354;28;20078;-73
2024/01/31 07:23:27;;;;;;;39.23;36.87;;;2.90;99.90;;;;;;4948336;28;20231;-73
2024/01/31 07:25:53;;;;;;;56.50;53.43;;;2.90;99.90;;;;;;4944216;28;20043;-73
2024/01/31 07:28:20;;;;;;;49.83;46.93;;;3.00;99.90;;;;;;4941150;28;20048;-74
2024/01/31 07:30:46;;;;;;;77.32;73.35;;;3.00;99.90;;;;;;4947985;28;20110;-74
2024/01/31 07:33:12;;;;;;;128.40;121.10;;;3.00;99.90;;;;;;4950736;28;20109;-73
2024/01/31 07:35:38;;;;;;;78.73;74.60;;;3.10;99.90;;;;;;4948661;28;20126;-74
2024/01/31 07:38:04;;;;;;;64.27;60.63;;;3.10;99.90;;;;;;4946812;29;20039;-74
2024/01/31 07:40:29;;;;;;;61.93;58.73;;;3.20;99.90;;;;;;4937675;29;20058;-74
2024/01/31 07:42:56;;;;;;;84.50;79.77;;;3.30;99.90;;;;;;4954031;28;20101;-76
2024/01/31 07:45:21;;;;;;;89.55;83.72;;;3.30;99.90;;;;;;4938844;29;20050;-74
2024/01/31 07:47:47;;;;;;;86.63;81.97;;;3.40;99.90;;;;;;4952069;28;20051;-74
2024/01/31 07:50:13;;;;;;;86.27;81.53;;;3.40;99.90;;;;;;4930398;29;20079;-74
2024/01/31 07:52:40;;;;;;;155.38;146.30;;;3.40;99.90;;;;;;4942639;28;20051;-74
2024/01/31 07:55:07;;;;;;;131.35;124.13;;;3.50;99.90;;;;;;4948102;29;20127;-74
2024/01/31 07:57:33;;;;;;;126.57;119.40;;;3.50;99.90;;;;;;4936893;29;20490;-74
2024/01/31 07:59:59;;;;;;;216.47;202.07;;;3.60;99.90;;;;;;4954837;28;20043;-74
2024/01/31 08:02:24;;;;;;;119.50;112.67;;;3.60;99.90;;;;;;4929062;29;20063;-74
2024/01/31 08:04:51;;;;;;;134.97;127.30;;;3.70;99.90;;;;;;4958804;28;20115;-74
2024/01/31 08:07:16;;;;;;;176.32;166.15;;;3.80;99.90;;;;;;4961470;28;20047;-74
2024/01/31 08:09:42;;;;;;;188.43;176.33;;;3.80;99.90;;;;;;4958798;28;20267;-74
2024/01/31 08:12:08;;;;;;;240.27;225.23;;;3.90;99.90;;;;;;4947788;28;20079;-74
2024/01/31 08:14:34;;;;;;;109.73;103.47;;;3.90;99.90;;;;;;4978577;28;20047;-74
2024/01/31 08:17:00;;;;;;;124.75;117.65;;;3.90;99.90;;;;;;4946169;29;20105;-74
2024/01/31 08:19:26;;;;;;;149.77;141.27;;;4.00;99.90;;;;;;4957653;28;20117;-74
2024/01/31 08:21:51;;;;;;;139.87;131.50;;;4.00;99.90;;;;;;4962348;28;20085;-74
2024/01/31 08:24:18;;;;;;;140.07;132.43;;;4.00;99.90;;;;;;4951973;28;20039;-74
2024/01/31 08:26:44;;;;;;;99.65;93.78;;;4.00;99.90;;;;;;4952591;28;20054;-74
2024/01/31 08:29:10;;;;;;;107.67;101.47;;;4.10;99.90;;;;;;4947114;29;20046;-74
2024/01/31 08:31:35;;;;;;;134.23;126.67;;;4.10;99.90;;;;;;4950988;29;20291;-74
2024/01/31 08:34:01;;;;;;;108.90;102.53;;;4.10;99.90;;;;;;4950211;28;20592;-74
2024/01/31 08:36:27;;;;;;;94.17;88.57;;;4.10;99.90;;;;;;4950492;29;20044;-75
2024/01/31 08:38:52;;;;;;;104.77;98.77;;;4.10;99.90;;;;;;4937913;28;20039;-74
2024/01/31 08:41:19;;;;;;;149.73;141.27;;;4.10;99.90;;;;;;4952274;28;20075;-74
2024/01/31 08:43:46;;;;;;;106.35;100.10;;;4.20;99.90;;;;;;4937791;29;20043;-74
2024/01/31 08:46:13;;;;;;;131.77;123.50;;;4.20;99.90;;;;;;4931315;29;20449;-74
2024/01/31 08:48:39;;;;;;;147.05;138.60;;;4.30;99.90;;;;;;4936083;29;20043;-74
2024/01/31 08:51:06;;;;;;;125.97;118.73;;;4.30;99.90;;;;;;4944776;29;20547;-74
2024/01/31 08:53:32;;;;;;;88.13;83.18;;;4.30;99.90;;;;;;4943676;28;20290;-74
2024/01/31 08:55:57;;;;;;;94.00;88.80;;;4.30;99.90;;;;;;4950163;28;20393;-74
2024/01/31 08:58:23;;;;;;;156.57;147.47;;;4.40;99.90;;;;;;4937896;29;20287;-74
2024/01/31 09:00:49;;;;;;;146.40;138.13;;;4.40;99.90;;;;;;4944545;28;20039;-74
2024/01/31 09:03:15;;;;;;;121.47;114.47;;;4.50;99.90;;;;;;4952312;29;20043;-73
2024/01/31 09:05:40;;;;;;;152.80;144.07;;;4.50;99.90;;;;;;4937089;28;20062;-73
2024/01/31 09:08:06;;;;;;;143.50;135.20;;;4.60;99.90;;;;;;4940615;28;20409;-73
2024/01/31 09:10:32;;;;;;;186.50;175.85;;;4.70;99.90;;;;;;4955623;28;20044;-73
2024/01/31 09:12:58;;;;;;;118.73;112.13;;;4.70;99.90;;;;;;4948224;29;20334;-74
2024/01/31 09:15:24;;;;;;;172.13;162.37;;;4.70;99.90;;;;;;4952395;28;20046;-74
2024/01/31 09:17:51;;;;;;;159.10;150.27;;;4.80;99.90;;;;;;4932154;28;20595;-74
2024/01/31 09:20:17;;;;;;;158.63;148.98;;;4.90;99.90;;;;;;4958667;28;20051;-73
2024/01/31 09:22:43;;;;;;;140.37;132.50;;;4.90;99.90;;;;;;4947890;28;20404;-74
2024/01/31 09:25:10;;;;;;;166.07;156.87;;;5.00;99.90;;;;;;4952245;28;20047;-74
2024/01/31 09:27:36;;;;;;;191.18;180.60;;;5.00;99.90;;;;;;4945986;28;20137;-74
2024/01/31 09:30:03;;;;;;;198.60;186.73;;;5.00;99.90;;;;;;4953343;28;20126;-74
2024/01/31 09:32:29;;;;;;;220.05;206.80;;;5.10;99.90;;;;;;4946807;28;20074;-74
2024/01/31 09:34:55;;;;;;;170.60;160.93;;;5.10;99.90;;;;;;4954985;28;20090;-74
2024/01/31 09:37:20;;;;;;;330.90;308.20;;;5.10;99.90;;;;;;4940142;29;20079;-74
2024/01/31 09:39:46;;;;;;;285.30;267.00;;;5.20;99.90;;;;;;4925703;29;20043;-74
2024/01/31 09:42:12;;;;;;;224.33;210.63;;;5.20;99.90;;;;;;4951768;28;20050;-74
2024/01/31 09:44:39;;;;;;;328.42;306.30;;;5.30;99.80;;;;;;4938307;28;20047;-74
2024/01/31 09:47:07;;;;;;;274.65;256.83;;;5.30;98.10;;;;;;4943953;28;20054;-74
2024/01/31 09:49:33;;;;;;;162.15;152.38;;;5.30;98.00;;;;;;4945621;28;20687;-74
2024/01/31 09:51:59;;;;;;;245.67;231.23;;;5.30;99.00;;;;;;4951957;29;20122;-74
2024/01/31 09:54:28;;;;;;;190.73;179.02;;;5.30;99.50;;;;;;4951622;28;20102;-74
2024/01/31 09:56:55;;;;;;;195.20;184.68;;;5.40;99.50;;;;;;4952395;29;20126;-74
2024/01/31 09:59:21;;;;;;;185.27;174.63;;;5.40;99.10;;;;;;4951020;29;20039;-74
2024/01/31 10:01:52;;;;;;;167.77;158.55;;;5.40;99.30;;;;;;4939320;28;20035;-74
2024/01/31 10:04:18;;;;;;;259.20;243.90;;;5.50;99.90;;;;;;4929389;29;20050;-74
2024/01/31 10:06:44;;;;;;;224.13;210.37;;;5.50;99.90;;;;;;4933679;29;20146;-74
2024/01/31 10:09:09;;;;;;;185.23;174.93;;;5.50;99.90;;;;;;4948548;28;20049;-74
2024/01/31 10:11:35;;;;;;;186.17;175.40;;;5.50;99.90;;;;;;4924878;29;20051;-74
2024/01/31 10:14:01;;;;;;;204.80;193.03;;;5.50;99.50;;;;;;4935678;28;20134;-74
2024/01/31 10:16:26;;;;;;;256.33;239.90;;;5.50;99.90;;;;;;4933611;28;20493;-74
2024/01/31 10:18:52;;;;;;;309.93;290.77;;;5.50;99.90;;;;;;4950554;28;20459;-74
2024/01/31 10:21:21;;;;;;;228.60;214.97;;;5.50;99.10;;;;;;4950755;28;20043;-74
2024/01/31 10:24:01;;;;;;;268.95;253.02;;;5.50;99.30;;;;;;4951061;28;20420;-74
2024/01/31 10:26:28;;;;;;;269.65;253.73;;;5.50;99.20;;;;;;4949833;28;20496;-74
2024/01/31 10:28:54;;;;;;;273.70;257.30;;;5.50;99.50;;;;;;4954648;28;20031;-74
2024/01/31 10:31:21;;;;;;;213.50;201.27;;;5.50;99.80;;;;;;4942635;28;20114;-73
2024/01/31 10:33:48;;;;;;;220.00;207.68;;;5.60;99.90;;;;;;4943278;28;20042;-73
2024/01/31 10:36:16;;;;;;;253.77;239.38;;;5.60;99.90;;;;;;4946160;28;20043;-74
2024/01/31 10:38:43;;;;;;;232.65;219.20;;;5.60;99.50;;;;;;4948949;28;20047;-73
2024/01/31 10:41:11;;;;;;;226.32;213.63;;;5.60;99.20;;;;;;4945605;28;20044;-73
2024/01/31 10:43:37;;;;;;;257.42;241.57;;;5.70;98.80;;;;;;4937031;29;20123;-74
2024/01/31 10:46:03;;;;;;;324.42;302.40;;;5.70;99.30;;;;;;4935906;29;20039;-73
2024/01/31 10:48:29;;;;;;;234.50;221.00;;;5.70;99.40;;;;;;4944095;28;20054;-74
2024/01/31 10:50:57;;;;;;;266.87;251.13;;;5.70;99.40;;;;;;4930076;28;20054;-74
2024/01/31 10:53:25;;;;;;;281.02;263.30;;;5.70;99.40;;;;;;4943861;28;20040;-75
2024/01/31 10:55:53;;;;;;;248.10;233.70;;;5.70;99.10;;;;;;4950842;29;20128;-74
2024/01/31 10:58:21;;;;;;;232.80;218.68;;;5.70;99.30;;;;;;4930622;29;20114;-74
2024/01/31 11:00:47;;;;;;;224.32;211.35;;;5.70;99.90;;;;;;4939601;28;20043;-74
2024/01/31 11:03:15;;;;;;;273.67;256.88;;;5.70;99.80;;;;;;4934126;29;20190;-74
2024/01/31 11:05:41;;;;;;;275.98;257.80;;;5.70;99.80;;;;;;4923324;29;20046;-74
2024/01/31 11:08:21;;;;;;;226.55;213.15;;;5.70;99.80;;;;;;4931634;28;20518;-74
2024/01/31 11:10:48;;;;;;;250.10;235.40;;;5.70;99.90;;;;;;4949278;28;20086;-74
2024/01/31 11:13:14;;;;;;;257.50;242.35;;;5.70;99.70;;;;;;4950301;28;20055;-74
2024/01/31 11:15:40;;;;;;;290.70;272.52;;;5.70;99.70;;;;;;4947722;29;20050;-75
2024/01/31 11:18:10;;;;;;;211.18;199.13;;;5.60;99.70;;;;;;4948154;28;20082;-74
2024/01/31 11:20:47;;;;;;;246.65;232.63;;;5.60;99.90;;;;;;4957563;28;20042;-74
2024/01/31 11:23:19;;;;;;;222.60;209.73;;;5.70;99.90;;;;;;4936257;29;20043;-73
2024/01/31 11:25:45;;;;;;;235.50;221.63;;;5.70;99.90;;;;;;4935602;29;20051;-73
2024/01/31 11:28:11;;;;;;;238.70;225.27;;;5.70;99.90;;;;;;4941473;28;20044;-74
2024/01/31 11:30:39;;;;;;;358.02;334.17;;;5.70;99.90;;;;;;4949294;28;20097;-74
2024/01/31 11:33:06;;;;;;;258.27;243.10;;;5.70;99.80;;;;;;4945297;28;20050;-73
2024/01/31 11:35:32;;;;;;;217.23;204.70;;;5.70;99.20;;;;;;4937104;28;20044;-73
2024/01/31 11:37:59;;;;;;;258.40;243.57;;;5.70;99.20;;;;;;4951176;28;20597;-74
2024/01/31 11:40:25;;;;;;;304.20;283.17;;;5.80;99.20;;;;;;4946130;29;20057;-75
2024/01/31 11:42:53;;;;;;;403.38;373.52;;;5.80;99.20;;;;;;4947012;29;20106;-74
2024/01/31 11:45:24;;;;;;;264.05;248.80;;;5.90;99.10;;;;;;4961434;28;20083;-75
2024/01/31 11:47:52;;;;;;;332.95;310.13;;;5.90;98.70;;;;;;4960100;28;20039;-75
2024/01/31 11:50:18;;;;;;;244.93;230.48;;;5.90;98.40;;;;;;4948448;29;20047;-75
2024/01/31 11:52:45;;;;;;;308.40;288.60;;;5.90;98.80;;;;;;4959369;29;20498;-75
2024/01/31 11:55:11;;;;;;;349.77;323.58;;;6.00;98.90;;;;;;4956798;28;20043;-75
2024/01/31 11:57:37;;;;;;;261.10;243.57;;;6.00;97.90;;;;;;4954807;28;20048;-75
2024/01/31 12:00:04;;;;;;;236.18;222.60;;;6.00;97.60;;;;;;4949742;29;20062;-75
2024/01/31 12:02:32;;;;;;;288.90;270.88;;;6.00;97.90;;;;;;4934143;28;20077;-76
2024/01/31 12:04:58;;;;;;;308.60;288.98;;;6.00;97.50;;;;;;4942211;29;20043;-75
2024/01/31 12:07:23;;;;;;;252.10;237.70;;;6.00;97.30;;;;;;4933097;29;20047;-75
2024/01/31 12:09:49;;;;;;;330.23;306.50;;;6.00;97.20;;;;;;4958858;29;20071;-74
2024/01/31 12:12:15;;;;;;;226.90;213.87;;;6.10;97.10;;;;;;4953180;28;20047;-75
2024/01/31 12:14:41;;;;;;;265.90;250.00;;;6.10;97.00;;;;;;4959520;28;20053;-75
2024/01/31 12:17:24;;;;;;;294.37;276.63;;;6.10;97.50;;;;;;4931189;29;20040;-74
2024/01/31 12:20:01;;;;;;;336.00;312.02;;;6.20;97.30;;;;;;4940364;28;20298;-75
2024/01/31 12:22:27;;;;;;;258.95;243.18;;;6.20;97.10;;;;;;4938708;29;20520;-75